| time (UTC) | temp C | wind direction | speed KPH | gust KPH | rain 1hr cm | rain 24hr cm | rain mn cm | humidity % | barometer mb |
| 20260508064504 | 11 | 0 | 0.0 | 0.0 | 0.00 | 2.36 | 0.00 | 96 | 1013.4 |
| 20260508063604 | 11 | 0 | 0.0 | 0.0 | 0.00 | 2.36 | 0.00 | 96 | 1013.4 |
| 20260508062704 | 11 | 0 | 0.0 | 0.0 | 0.00 | 2.36 | 0.00 | 97 | 1013.4 |
| 20260508061804 | 11 | 0 | 0.0 | 0.0 | 0.00 | 2.36 | 0.00 | 96 | 1013.4 |
| 20260508060925 | 11 | 0 | 0.0 | 0.0 | 0.00 | 2.36 | 0.00 | 96 | 1013.3 |
| 20260508060025 | 11 | 0 | 0.0 | 0.0 | 0.00 | 2.36 | 0.00 | 96 | 1013.4 |
| 20260508055404 | 11 | 0 | 0.0 | 0.0 | 0.00 | 2.36 | 0.00 | 96 | 1013.4 |
| 20260508054504 | 11 | 0 | 0.0 | 0.0 | 0.00 | 2.36 | 0.00 | 96 | 1013.3 |
| 20260508053604 | 11 | 0 | 0.0 | 0.0 | 0.00 | 2.36 | 0.00 | 96 | 1013.4 |
| 20260508052704 | 11 | 0 | 0.0 | 0.0 | 0.00 | 2.36 | 0.00 | 96 | 1013.4 |
| 20260508051825 | 12 | 0 | 0.0 | 0.0 | 0.00 | 2.36 | 0.00 | 96 | 1013.3 |
| 20260508040904 | 12 | 0 | 0.0 | 0.0 | 0.00 | 3.05 | 0.00 | 96 | 1013.1 |
| 20260508040005 | 12 | 0 | 0.0 | 0.0 | 0.00 | 3.05 | 0.00 | 96 | 1013.1 |
| 20260508035404 | 12 | 0 | 0.0 | 0.0 | 0.00 | 3.05 | 3.05 | 96 | 1013.0 |
| 20260508034504 | 12 | 0 | 0.0 | 0.0 | 0.00 | 3.07 | 3.05 | 96 | 1013.0 |
| 20260508033604 | 12 | 71 | 0.0 | 1.6 | 0.00 | 3.07 | 3.05 | 96 | 1012.6 |
| 20260508032704 | 12 | 0 | 0.0 | 0.0 | 0.00 | 3.10 | 3.05 | 96 | 1012.6 |
| 20260508031804 | 12 | 0 | 0.0 | 0.0 | 0.00 | 3.12 | 3.05 | 96 | 1012.4 |
| 20260508030904 | 12 | 76 | 0.0 | 1.6 | 0.00 | 3.15 | 3.05 | 96 | 1012.4 |
| 20260508030005 | 12 | 0 | 0.0 | 0.0 | 0.00 | 3.15 | 3.05 | 96 | 1012.4 |
| 20260508025404 | 12 | 0 | 0.0 | 0.0 | 0.00 | 3.15 | 3.05 | 96 | 1012.3 |
| 20260508024525 | 12 | 0 | 0.0 | 0.0 | 0.00 | 3.15 | 3.05 | 96 | 1012.2 |
| 20260508023604 | 12 | 0 | 0.0 | 0.0 | 0.00 | 3.15 | 3.05 | 96 | 1012.1 |
| 20260508022704 | 12 | 0 | 0.0 | 0.0 | 0.00 | 3.15 | 3.05 | 96 | 1011.9 |
| 20260508021825 | 12 | 0 | 0.0 | 0.0 | 0.00 | 3.15 | 3.05 | 96 | 1011.9 |
| 20260508020904 | 12 | 0 | 0.0 | 0.0 | 0.00 | 3.15 | 3.05 | 95 | 1011.8 |
| 20260508020004 | 12 | 72 | 0.0 | 1.6 | 0.00 | 3.15 | 3.05 | 95 | 1011.6 |
| 20260508015404 | 12 | 72 | 0.0 | 1.6 | 0.00 | 3.15 | 3.05 | 95 | 1011.5 |
| 20260508014525 | 12 | 0 | 0.0 | 0.0 | 0.00 | 3.15 | 3.05 | 95 | 1011.7 |
| 20260508013604 | 12 | 0 | 0.0 | 0.0 | 0.00 | 3.15 | 3.05 | 95 | 1011.6 |
| 20260508010926 | 12 | 61 | 1.6 | 8.0 | 0.20 | 3.15 | 3.05 | 95 | 1010.8 |
| 20260508010004 | 12 | 71 | 1.6 | 8.0 | 0.28 | 3.15 | 3.05 | 95 | 1010.7 |
| 20260508005404 | 12 | 0 | 0.0 | 0.0 | 0.30 | 3.15 | 3.05 | 95 | 1010.7 |
| 20260508004504 | 12 | 0 | 0.0 | 0.0 | 0.33 | 3.15 | 3.05 | 95 | 1010.9 |
| 20260508003604 | 12 | 310 | 0.0 | 1.6 | 0.33 | 3.15 | 3.05 | 94 | 1010.8 |
| 20260508002704 | 12 | 74 | 1.6 | 3.2 | 0.30 | 3.12 | 3.02 | 94 | 1010.9 |
| 20260508001804 | 12 | 70 | 0.0 | 1.6 | 0.25 | 3.07 | 2.97 | 93 | 1010.9 |
| 20260508000905 | 12 | 7 | 0.0 | 4.8 | 0.13 | 2.95 | 2.84 | 93 | 1010.7 |
| 20260508000004 | 12 | 61 | 3.2 | 12.9 | 0.05 | 2.87 | 2.77 | 92 | 1010.5 |
| 20260507235404 | 12 | 55 | 3.2 | 11.3 | 0.03 | 2.84 | 2.74 | 91 | 1009.8 |
| 20260507234504 | 12 | 51 | 3.2 | 8.0 | 0.00 | 2.82 | 2.72 | 91 | 1009.4 |
| 20260507233604 | 12 | 48 | 3.2 | 11.3 | 0.00 | 2.82 | 2.72 | 90 | 1009.5 |
| 20260507232726 | 12 | 45 | 3.2 | 8.0 | 0.00 | 2.82 | 2.72 | 91 | 1009.7 |
| 20260507231804 | 13 | 55 | 4.8 | 11.3 | 0.00 | 2.82 | 2.72 | 91 | 1009.7 |
| 20260507230904 | 13 | 53 | 4.8 | 12.9 | 0.00 | 2.82 | 2.72 | 91 | 1009.7 |
| 20260507220004 | 13 | 42 | 3.2 | 11.3 | 0.00 | 2.82 | 2.72 | 90 | 1009.1 |
| 20260507215404 | 13 | 45 | 3.2 | 9.7 | 0.00 | 2.82 | 2.72 | 90 | 1009.2 |
| 20260507214525 | 12 | 42 | 4.8 | 12.9 | 0.00 | 2.82 | 2.72 | 90 | 1009.2 |
| 20260507213604 | 12 | 59 | 8.0 | 17.7 | 0.00 | 2.82 | 2.72 | 90 | 1009.2 |
| 20260507212704 | 13 | 56 | 8.0 | 20.9 | 0.00 | 2.82 | 2.72 | 91 | 1009.0 |
| 20260507211804 | 13 | 63 | 8.0 | 17.7 | 0.00 | 2.82 | 2.72 | 91 | 1009.0 |
| 20260507210904 | 13 | 50 | 8.0 | 17.7 | 0.00 | 2.82 | 2.72 | 92 | 1008.9 |
| 20260507210005 | 13 | 68 | 8.0 | 19.3 | 0.00 | 2.82 | 2.72 | 92 | 1008.7 |
| 20260507205404 | 13 | 64 | 6.4 | 16.1 | 0.00 | 2.82 | 2.72 | 92 | 1008.4 |
| 20260507204525 | 14 | 56 | 6.4 | 17.7 | 0.00 | 2.82 | 2.72 | 93 | 1008.4 |
| 20260507203604 | 14 | 61 | 4.8 | 16.1 | 0.00 | 2.82 | 2.72 | 93 | 1008.3 |
| 20260507202704 | 14 | 63 | 4.8 | 16.1 | 0.00 | 2.82 | 2.72 | 93 | 1008.2 |
| 20260507201804 | 14 | 66 | 6.4 | 16.1 | 0.00 | 2.82 | 2.72 | 93 | 1008.1 |
| 20260507200904 | 14 | 56 | 6.4 | 12.9 | 0.00 | 2.82 | 2.72 | 93 | 1008.2 |
| 20260507200004 | 14 | 69 | 8.0 | 17.7 | 0.00 | 2.82 | 2.72 | 92 | 1008.4 |
| 20260507195404 | 14 | 58 | 9.7 | 22.5 | 0.00 | 2.82 | 2.72 | 93 | 1008.4 |
| 20260507194504 | 14 | 66 | 8.0 | 22.5 | 0.00 | 2.82 | 2.72 | 93 | 1008.2 |
| 20260507193625 | 14 | 29 | 3.2 | 9.7 | 0.03 | 2.82 | 2.72 | 94 | 1008.3 |
| 20260507192704 | 15 | 55 | 6.4 | 16.1 | 0.05 | 2.82 | 2.72 | 94 | 1008.1 |
| 20260507191804 | 15 | 53 | 6.4 | 16.1 | 0.05 | 2.87 | 2.72 | 94 | 1008.1 |
| 20260507190925 | 15 | 21 | 4.8 | 12.9 | 0.05 | 2.95 | 2.72 | 94 | 1008.3 |
| 20260507190005 | 15 | 48 | 4.8 | 14.5 | 0.05 | 3.00 | 2.72 | 94 | 1008.3 |
| 20260507185404 | 15 | 46 | 6.4 | 16.1 | 0.05 | 3.00 | 2.72 | 94 | 1007.9 |
| 20260507184504 | 15 | 48 | 8.0 | 17.7 | 0.05 | 3.00 | 2.72 | 93 | 1007.0 |
| 20260507183604 | 16 | 27 | 6.4 | 17.7 | 0.03 | 2.97 | 2.69 | 93 | 1008.0 |
| 20260507182704 | 16 | 29 | 1.6 | 9.7 | 0.00 | 2.95 | 2.67 | 94 | 1007.9 |
| 20260507181804 | 16 | 36 | 3.2 | 12.9 | 0.00 | 2.95 | 2.67 | 93 | 1007.7 |
| 20260507180904 | 17 | 52 | 8.0 | 14.5 | 0.00 | 2.95 | 2.67 | 90 | 1007.2 |
| 20260507175404 | 21 | 242 | 0.0 | 3.2 | 0.00 | 2.95 | 2.67 | 93 | 1007.3 |
| 20260507174504 | 21 | 262 | 0.0 | 4.8 | 0.00 | 2.95 | 2.67 | 93 | 1007.5 |
| 20260507173604 | 21 | 262 | 0.0 | 4.8 | 0.00 | 2.95 | 2.67 | 93 | 1007.7 |
| 20260507172704 | 21 | 250 | 0.0 | 1.6 | 0.00 | 2.95 | 2.67 | 94 | 1007.4 |
| 20260507161804 | 20 | 253 | 0.0 | 4.8 | 0.03 | 2.95 | 2.67 | 95 | 1008.3 |
| 20260507160904 | 20 | 232 | 0.0 | 4.8 | 0.00 | 2.92 | 2.64 | 95 | 1008.7 |
| 20260507160004 | 20 | 241 | 0.0 | 9.7 | 0.03 | 2.92 | 2.64 | 95 | 1008.7 |
| 20260507155404 | 20 | 231 | 0.0 | 4.8 | 0.03 | 2.92 | 2.64 | 95 | 1009.0 |
| 20260507154504 | 20 | 270 | 0.0 | 4.8 | 0.05 | 2.92 | 2.64 | 95 | 1008.6 |
| 20260507153604 | 20 | 231 | 0.0 | 3.2 | 0.10 | 2.92 | 2.64 | 95 | 1008.4 |
| 20260507152725 | 20 | 273 | 0.0 | 4.8 | 0.20 | 2.92 | 2.64 | 96 | 1008.0 |
| 20260507151825 | 20 | 182 | 0.0 | 3.2 | 0.38 | 2.92 | 2.64 | 96 | 1008.3 |
| 20260507150904 | 19 | 308 | 0.0 | 4.8 | 0.58 | 2.92 | 2.64 | 96 | 1008.2 |
| 20260507150025 | 19 | 154 | 0.0 | 3.2 | 1.07 | 2.90 | 2.62 | 96 | 1008.5 |
| 20260507145404 | 19 | 264 | 0.0 | 1.6 | 1.14 | 2.90 | 2.62 | 96 | 1008.5 |
| 20260507144525 | 19 | 181 | 0.0 | 4.8 | 1.24 | 2.87 | 2.59 | 96 | 1008.9 |
| 20260507143604 | 19 | 240 | 1.6 | 8.0 | 1.19 | 2.82 | 2.54 | 96 | 1008.8 |
| 20260507142704 | 19 | 211 | 0.0 | 6.4 | 1.09 | 2.72 | 2.44 | 96 | 1008.9 |
| 20260507141804 | 19 | 176 | 0.0 | 3.2 | 0.91 | 2.54 | 2.26 | 96 | 1008.7 |
| 20260507140904 | 19 | 172 | 1.6 | 6.4 | 0.71 | 2.34 | 2.06 | 96 | 1009.0 |
| 20260507140025 | 19 | 291 | 0.0 | 1.6 | 0.20 | 1.83 | 1.57 | 96 | 1009.3 |
| 20260507135404 | 19 | 287 | 0.0 | 1.6 | 0.15 | 1.75 | 1.47 | 96 | 1009.1 |
| 20260507134504 | 19 | 0 | 0.0 | 0.0 | 0.05 | 1.63 | 1.35 | 96 | 1009.1 |
| 20260507133604 | 19 | 0 | 0.0 | 0.0 | 0.05 | 1.63 | 1.35 | 96 | 1009.2 |
| 20260507132704 | 19 | 268 | 0.0 | 1.6 | 0.05 | 1.63 | 1.35 | 95 | 1009.1 |
| 20260507120904 | 18 | 187 | 0.0 | 3.2 | 0.03 | 1.57 | 1.30 | 96 | 1009.2 |
| 20260507120004 | 18 | 207 | 0.0 | 3.2 | 0.03 | 1.57 | 1.30 | 96 | 1009.3 |
| 20260507115425 | 18 | 180 | 0.0 | 4.8 | 0.03 | 1.57 | 1.30 | 96 | 1009.4 |
| 20260507114504 | 18 | 175 | 0.0 | 3.2 | 0.03 | 1.57 | 1.30 | 96 | 1009.4 |
| 20260507113604 | 18 | 127 | 0.0 | 1.6 | 0.03 | 1.57 | 1.30 | 96 | 1009.7 |
| 20260507112704 | 18 | 195 | 0.0 | 1.6 | 0.00 | 1.55 | 1.27 | 96 | 1009.8 |
| 20260507111825 | 18 | 168 | 0.0 | 1.6 | 0.03 | 1.55 | 1.27 | 96 | 1009.7 |
| 20260507110904 | 18 | 175 | 0.0 | 1.6 | 0.03 | 1.55 | 1.27 | 96 | 1009.8 |
| 20260507110004 | 18 | 162 | 0.0 | 4.8 | 0.05 | 1.55 | 1.27 | 96 | 1009.8 |
| 20260507105404 | 18 | 163 | 0.0 | 4.8 | 0.08 | 1.55 | 1.27 | 96 | 1009.7 |
| 20260507104504 | 18 | 182 | 0.0 | 1.6 | 0.08 | 1.55 | 1.27 | 96 | 1009.5 |
| 20260507103604 | 18 | 219 | 0.0 | 1.6 | 0.08 | 1.55 | 1.27 | 96 | 1009.4 |
| 20260507102704 | 18 | 156 | 0.0 | 1.6 | 0.08 | 1.55 | 1.27 | 96 | 1009.4 |
| 20260507101825 | 18 | 159 | 0.0 | 3.2 | 0.08 | 1.52 | 1.24 | 96 | 1009.3 |
| 20260507100904 | 18 | 158 | 0.0 | 3.2 | 0.08 | 1.52 | 1.24 | 96 | 1009.3 |
| 20260507100004 | 18 | 153 | 0.0 | 3.2 | 0.05 | 1.50 | 1.22 | 96 | 1009.4 |
| 20260507095404 | 18 | 162 | 0.0 | 4.8 | 0.03 | 1.47 | 1.19 | 96 | 1009.4 |
| 20260507094504 | 18 | 160 | 0.0 | 1.6 | 0.03 | 1.47 | 1.19 | 96 | 1009.2 |
| 20260507093625 | 18 | 173 | 0.0 | 4.8 | 0.05 | 1.47 | 1.19 | 96 | 1009.3 |
| 20260507092704 | 18 | 187 | 0.0 | 4.8 | 0.10 | 1.47 | 1.19 | 96 | 1009.3 |
| 20260507091804 | 18 | 163 | 0.0 | 4.8 | 0.18 | 1.45 | 1.17 | 96 | 1009.2 |
| 20260507090904 | 18 | 156 | 0.0 | 3.2 | 0.25 | 1.45 | 1.17 | 96 | 1009.4 |
| 20260507090005 | 18 | 180 | 0.0 | 1.6 | 0.28 | 1.45 | 1.17 | 96 | 1009.4 |
| 20260507085404 | 18 | 177 | 0.0 | 3.2 | 0.30 | 1.45 | 1.17 | 96 | 1009.4 |
| 20260507084504 | 18 | 0 | 0.0 | 0.0 | 0.33 | 1.45 | 1.17 | 95 | 1009.7 |
| 20260507083604 | 18 | 85 | 0.0 | 1.6 | 0.33 | 1.42 | 1.14 | 95 | 1009.9 |
| 20260507082704 | 18 | 0 | 0.0 | 0.0 | 0.33 | 1.37 | 1.09 | 95 | 1010.1 |
| 20260507081804 | 18 | 0 | 0.0 | 0.0 | 0.23 | 1.27 | 0.99 | 95 | 1010.3 |
| 20260507080904 | 18 | 284 | 0.0 | 1.6 | 0.18 | 1.19 | 0.91 | 95 | 1010.3 |
| 20260507080004 | 18 | 284 | 0.0 | 1.6 | 0.20 | 1.17 | 0.89 | 95 | 1009.9 |
| 20260507075404 | 18 | 153 | 0.0 | 1.6 | 0.18 | 1.14 | 0.86 | 95 | 1010.2 |
| 20260507074504 | 18 | 149 | 0.0 | 1.6 | 0.15 | 1.12 | 0.84 | 95 | 1009.2 |
| 20260507073625 | 18 | 0 | 0.0 | 0.0 | 0.13 | 1.09 | 0.81 | 95 | 1010.3 |
| 20260507072725 | 18 | 0 | 0.0 | 0.0 | 0.08 | 1.04 | 0.76 | 95 | 1010.5 |
| 20260507071804 | 18 | 157 | 0.0 | 3.2 | 0.08 | 1.04 | 0.76 | 95 | 1010.4 |
| 20260507070904 | 18 | 155 | 0.0 | 1.6 | 0.05 | 1.02 | 0.74 | 95 | 1010.2 |
| 20260507070025 | 18 | 0 | 0.0 | 0.0 | 0.00 | 0.97 | 0.69 | 95 | 1010.6 |
| 20260507065404 | 18 | 0 | 0.0 | 0.0 | 0.00 | 0.97 | 0.69 | 95 | 1010.8 |